sensor_id;sensor_type;location;lat;lon;timestamp;pressure;altitude;pressure_sealevel;temperature;humidity
21234;BME280;10774;42.178;26.578;2023-02-19T00:01:09;100190.34;;;11.39;60.11
21234;BME280;10774;42.178;26.578;2023-02-19T00:03:36;100174.72;;;11.31;60.40
21234;BME280;10774;42.178;26.578;2023-02-19T00:06:02;100198.63;;;11.36;60.75
21234;BME280;10774;42.178;26.578;2023-02-19T00:08:30;100181.72;;;11.34;60.80
21234;BME280;10774;42.178;26.578;2023-02-19T00:11:00;100182.88;;;11.30;61.23
21234;BME280;10774;42.178;26.578;2023-02-19T00:13:26;100173.66;;;11.19;61.63
21234;BME280;10774;42.178;26.578;2023-02-19T00:15:51;100171.38;;;11.13;61.62
21234;BME280;10774;42.178;26.578;2023-02-19T00:18:16;100179.81;;;11.21;61.83
21234;BME280;10774;42.178;26.578;2023-02-19T00:20:42;100167.03;;;11.11;61.96
21234;BME280;10774;42.178;26.578;2023-02-19T00:23:07;100167.91;;;11.11;62.40
21234;BME280;10774;42.178;26.578;2023-02-19T00:25:35;100172.88;;;11.17;62.54
21234;BME280;10774;42.178;26.578;2023-02-19T00:28:02;100160.06;;;11.08;62.81
21234;BME280;10774;42.178;26.578;2023-02-19T00:30:27;100165.31;;;11.10;63.12
21234;BME280;10774;42.178;26.578;2023-02-19T00:32:53;100156.97;;;11.00;63.41
21234;BME280;10774;42.178;26.578;2023-02-19T00:35:20;100148.34;;;10.95;63.97
21234;BME280;10774;42.178;26.578;2023-02-19T00:37:45;100146.03;;;10.89;64.49
21234;BME280;10774;42.178;26.578;2023-02-19T00:40:10;100146.59;;;10.80;64.86
21234;BME280;10774;42.178;26.578;2023-02-19T00:42:36;100144.09;;;10.91;65.13
21234;BME280;10774;42.178;26.578;2023-02-19T00:45:01;100154.84;;;10.91;65.44
21234;BME280;10774;42.178;26.578;2023-02-19T00:47:27;100148.63;;;10.90;65.46
21234;BME280;10774;42.178;26.578;2023-02-19T00:49:52;100151.22;;;10.92;65.71
21234;BME280;10774;42.178;26.578;2023-02-19T00:52:18;100148.34;;;10.95;65.99
21234;BME280;10774;42.178;26.578;2023-02-19T00:54:43;100121.66;;;10.78;66.17
21234;BME280;10774;42.178;26.578;2023-02-19T00:57:08;100126.75;;;10.68;66.69
21234;BME280;10774;42.178;26.578;2023-02-19T00:59:34;100123.56;;;10.76;67.20
21234;BME280;10774;42.178;26.578;2023-02-19T01:02:01;100128.75;;;10.79;67.59
21234;BME280;10774;42.178;26.578;2023-02-19T01:04:27;100122.91;;;10.72;68.79
21234;BME280;10774;42.178;26.578;2023-02-19T01:07:15;100117.66;;;10.70;70.01
21234;BME280;10774;42.178;26.578;2023-02-19T01:09:41;100103.66;;;10.65;71.15
21234;BME280;10774;42.178;26.578;2023-02-19T01:12:06;100104.47;;;10.52;72.74
21234;BME280;10774;42.178;26.578;2023-02-19T01:14:32;100098.63;;;10.45;73.07
21234;BME280;10774;42.178;26.578;2023-02-19T01:16:57;100108.19;;;10.49;74.03
21234;BME280;10774;42.178;26.578;2023-02-19T01:19:23;100093.16;;;10.46;74.18
21234;BME280;10774;42.178;26.578;2023-02-19T01:21:48;100093.28;;;10.45;74.43
21234;BME280;10774;42.178;26.578;2023-02-19T01:24:13;100092.19;;;10.47;74.66
21234;BME280;10774;42.178;26.578;2023-02-19T01:26:41;100102.75;;;10.51;75.52
21234;BME280;10774;42.178;26.578;2023-02-19T01:29:06;100088.66;;;10.47;75.10
21234;BME280;10774;42.178;26.578;2023-02-19T01:31:32;100093.47;;;10.56;75.21
21234;BME280;10774;42.178;26.578;2023-02-19T01:34:00;100088.28;;;10.53;75.02
21234;BME280;10774;42.178;26.578;2023-02-19T01:36:26;100085.50;;;10.40;75.93
21234;BME280;10774;42.178;26.578;2023-02-19T01:38:52;100101.41;;;10.58;76.54
21234;BME280;10774;42.178;26.578;2023-02-19T01:41:21;100100.16;;;10.49;76.88
21234;BME280;10774;42.178;26.578;2023-02-19T01:46:44;100091.75;;;10.69;76.51
21234;BME280;10774;42.178;26.578;2023-02-19T01:49:29;100078.69;;;10.49;77.26
21234;BME280;10774;42.178;26.578;2023-02-19T01:52:03;100097.69;;;10.60;78.03
21234;BME280;10774;42.178;26.578;2023-02-19T01:54:33;100095.28;;;10.56;78.17
21234;BME280;10774;42.178;26.578;2023-02-19T01:57:03;100102.19;;;10.60;78.42
21234;BME280;10774;42.178;26.578;2023-02-19T01:59:32;100088.84;;;10.58;77.83
21234;BME280;10774;42.178;26.578;2023-02-19T02:01:58;100099.03;;;10.67;77.97
21234;BME280;10774;42.178;26.578;2023-02-19T02:04:24;100090.97;;;10.53;78.88
21234;BME280;10774;42.178;26.578;2023-02-19T02:06:54;100070.09;;;10.44;78.98
21234;BME280;10774;42.178;26.578;2023-02-19T02:09:26;100095.09;;;10.59;78.97
21234;BME280;10774;42.178;26.578;2023-02-19T02:12:10;100089.72;;;10.59;78.99
21234;BME280;10774;42.178;26.578;2023-02-19T02:14:39;100076.97;;;10.48;79.52
21234;BME280;10774;42.178;26.578;2023-02-19T02:17:24;100065.09;;;10.66;78.61
21234;BME280;10774;42.178;26.578;2023-02-19T02:23:28;100084.47;;;10.71;78.65
21234;BME280;10774;42.178;26.578;2023-02-19T02:26:10;100095.94;;;10.45;79.68
21234;BME280;10774;42.178;26.578;2023-02-19T02:29:15;100097.25;;;10.38;79.74
21234;BME280;10774;42.178;26.578;2023-02-19T02:31:53;100091.28;;;10.18;78.73
21234;BME280;10774;42.178;26.578;2023-02-19T02:34:33;100084.78;;;9.92;80.53
21234;BME280;10774;42.178;26.578;2023-02-19T02:37:03;100076.47;;;9.97;81.03
21234;BME280;10774;42.178;26.578;2023-02-19T02:39:30;100083.53;;;9.98;81.88
21234;BME280;10774;42.178;26.578;2023-02-19T02:41:58;100077.38;;;9.96;81.78
21234;BME280;10774;42.178;26.578;2023-02-19T02:44:43;100071.16;;;9.95;81.97
21234;BME280;10774;42.178;26.578;2023-02-19T02:47:50;100072.03;;;9.96;82.31
21234;BME280;10774;42.178;26.578;2023-02-19T02:50:24;100077.84;;;10.18;81.70
21234;BME280;10774;42.178;26.578;2023-02-19T02:52:55;100082.63;;;10.13;82.04
21234;BME280;10774;42.178;26.578;2023-02-19T02:55:44;100092.19;;;10.03;82.01
21234;BME280;10774;42.178;26.578;2023-02-19T02:58:11;100104.78;;;10.01;83.29
21234;BME280;10774;42.178;26.578;2023-02-19T03:00:41;100110.53;;;9.95;83.28
21234;BME280;10774;42.178;26.578;2023-02-19T03:03:27;100115.66;;;9.84;84.27
21234;BME280;10774;42.178;26.578;2023-02-19T03:05:58;100086.38;;;9.81;83.82
21234;BME280;10774;42.178;26.578;2023-02-19T03:08:51;100090.66;;;9.83;84.50
21234;BME280;10774;42.178;26.578;2023-02-19T03:11:17;100099.09;;;10.07;83.71
21234;BME280;10774;42.178;26.578;2023-02-19T03:16:50;100084.69;;;10.24;83.07
21234;BME280;10774;42.178;26.578;2023-02-19T03:19:39;100092.78;;;10.08;83.21
21234;BME280;10774;42.178;26.578;2023-02-19T03:22:18;100098.72;;;10.13;83.74
21234;BME280;10774;42.178;26.578;2023-02-19T03:24:50;100099.69;;;10.12;85.07
21234;BME280;10774;42.178;26.578;2023-02-19T03:27:36;100095.72;;;10.04;85.95
21234;BME280;10774;42.178;26.578;2023-02-19T03:30:08;100089.94;;;9.65;87.93
21234;BME280;10774;42.178;26.578;2023-02-19T03:32:54;100107.53;;;9.69;89.56
21234;BME280;10774;42.178;26.578;2023-02-19T03:35:28;100115.41;;;9.73;88.74
21234;BME280;10774;42.178;26.578;2023-02-19T03:38:11;100105.66;;;9.72;89.26
21234;BME280;10774;42.178;26.578;2023-02-19T03:43:18;100129.53;;;10.06;89.74
21234;BME280;10774;42.178;26.578;2023-02-19T03:50:48;100136.00;;;9.56;91.96
21234;BME280;10774;42.178;26.578;2023-02-19T03:53:33;100149.06;;;9.47;93.43
21234;BME280;10774;42.178;26.578;2023-02-19T04:03:40;100161.22;;;9.21;92.84
21234;BME280;10774;42.178;26.578;2023-02-19T04:06:19;100174.13;;;9.30;93.21
21234;BME280;10774;42.178;26.578;2023-02-19T04:08:49;100170.31;;;9.18;93.22
21234;BME280;10774;42.178;26.578;2023-02-19T04:11:17;100164.22;;;9.14;94.37
21234;BME280;10774;42.178;26.578;2023-02-19T04:14:23;100182.03;;;9.15;94.75
21234;BME280;10774;42.178;26.578;2023-02-19T04:16:55;100173.22;;;9.13;93.79
21234;BME280;10774;42.178;26.578;2023-02-19T04:19:25;100201.16;;;9.25;93.70
21234;BME280;10774;42.178;26.578;2023-02-19T04:21:52;100203.44;;;9.15;93.57
21234;BME280;10774;42.178;26.578;2023-02-19T04:24:50;100197.66;;;9.07;94.42
21234;BME280;10774;42.178;26.578;2023-02-19T04:27:16;100179.44;;;8.81;95.37
21234;BME280;10774;42.178;26.578;2023-02-19T04:29:44;100167.97;;;8.61;97.45
21234;BME280;10774;42.178;26.578;2023-02-19T04:32:11;100195.41;;;8.82;96.88
21234;BME280;10774;42.178;26.578;2023-02-19T04:34:37;100204.97;;;8.71;98.14
21234;BME280;10774;42.178;26.578;2023-02-19T04:37:02;100176.44;;;8.70;98.22
21234;BME280;10774;42.178;26.578;2023-02-19T04:39:28;100187.16;;;8.70;97.12
21234;BME280;10774;42.178;26.578;2023-02-19T04:41:53;100206.84;;;8.69;96.77
21234;BME280;10774;42.178;26.578;2023-02-19T04:44:19;100209.91;;;8.61;97.08
21234;BME280;10774;42.178;26.578;2023-02-19T04:46:44;100197.09;;;8.50;98.24
21234;BME280;10774;42.178;26.578;2023-02-19T04:49:10;100189.19;;;8.30;99.29
21234;BME280;10774;42.178;26.578;2023-02-19T04:51:35;100193.91;;;8.25;100.00
21234;BME280;10774;42.178;26.578;2023-02-19T04:54:01;100205.75;;;8.55;99.48
21234;BME280;10774;42.178;26.578;2023-02-19T04:56:27;100192.59;;;8.51;98.65
21234;BME280;10774;42.178;26.578;2023-02-19T04:58:52;100202.75;;;8.44;98.71
21234;BME280;10774;42.178;26.578;2023-02-19T05:01:18;100195.50;;;8.63;99.28
21234;BME280;10774;42.178;26.578;2023-02-19T05:03:43;100220.16;;;8.70;98.30
21234;BME280;10774;42.178;26.578;2023-02-19T05:06:11;100207.13;;;8.28;100.00
21234;BME280;10774;42.178;26.578;2023-02-19T05:08:37;100220.03;;;8.37;100.00
21234;BME280;10774;42.178;26.578;2023-02-19T05:11:04;100196.84;;;8.37;99.29
21234;BME280;10774;42.178;26.578;2023-02-19T05:13:30;100216.78;;;8.49;99.21
21234;BME280;10774;42.178;26.578;2023-02-19T05:16:01;100228.97;;;8.19;100.00
21234;BME280;10774;42.178;26.578;2023-02-19T05:18:29;100220.75;;;8.04;100.00
21234;BME280;10774;42.178;26.578;2023-02-19T05:20:56;100218.81;;;8.25;100.00
21234;BME280;10774;42.178;26.578;2023-02-19T05:23:21;100218.53;;;8.31;100.00
21234;BME280;10774;42.178;26.578;2023-02-19T05:25:47;100208.78;;;7.94;100.00
21234;BME280;10774;42.178;26.578;2023-02-19T05:28:12;100221.38;;;7.92;100.00
21234;BME280;10774;42.178;26.578;2023-02-19T05:30:49;100222.47;;;8.05;100.00
21234;BME280;10774;42.178;26.578;2023-02-19T05:33:16;100209.00;;;8.26;100.00
21234;BME280;10774;42.178;26.578;2023-02-19T05:35:43;100204.81;;;8.39;100.00
21234;BME280;10774;42.178;26.578;2023-02-19T05:38:10;100212.38;;;8.66;100.00
21234;BME280;10774;42.178;26.578;2023-02-19T05:40:35;100192.25;;;8.92;100.00
21234;BME280;10774;42.178;26.578;2023-02-19T05:43:01;100209.09;;;8.94;100.00
21234;BME280;10774;42.178;26.578;2023-02-19T05:45:26;100197.63;;;8.92;100.00
21234;BME280;10774;42.178;26.578;2023-02-19T05:47:52;100199.19;;;9.11;100.00
21234;BME280;10774;42.178;26.578;2023-02-19T05:50:17;100206.78;;;9.36;100.00
21234;BME280;10774;42.178;26.578;2023-02-19T05:52:43;100206.44;;;9.42;99.36
21234;BME280;10774;42.178;26.578;2023-02-19T05:55:09;100206.03;;;9.50;97.98
21234;BME280;10774;42.178;26.578;2023-02-19T05:57:41;100224.00;;;9.48;97.69
21234;BME280;10774;42.178;26.578;2023-02-19T06:00:09;100232.28;;;9.43;98.15
21234;BME280;10774;42.178;26.578;2023-02-19T06:02:35;100230.84;;;9.21;99.46
21234;BME280;10774;42.178;26.578;2023-02-19T06:05:02;100249.25;;;9.27;99.36
21234;BME280;10774;42.178;26.578;2023-02-19T06:07:27;100246.25;;;9.33;100.00
21234;BME280;10774;42.178;26.578;2023-02-19T06:09:52;100236.41;;;9.00;100.00
21234;BME280;10774;42.178;26.578;2023-02-19T06:12:18;100254.75;;;9.08;100.00
21234;BME280;10774;42.178;26.578;2023-02-19T06:14:43;100256.09;;;9.32;100.00
21234;BME280;10774;42.178;26.578;2023-02-19T06:17:09;100261.16;;;9.54;100.00
21234;BME280;10774;42.178;26.578;2023-02-19T06:19:34;100259.81;;;9.79;99.76
21234;BME280;10774;42.178;26.578;2023-02-19T06:22:00;100244.44;;;9.82;98.57
21234;BME280;10774;42.178;26.578;2023-02-19T06:24:25;100241.25;;;10.07;96.75
21234;BME280;10774;42.178;26.578;2023-02-19T06:26:51;100236.28;;;10.15;96.80
21234;BME280;10774;42.178;26.578;2023-02-19T06:29:16;100249.88;;;10.44;96.09
21234;BME280;10774;42.178;26.578;2023-02-19T06:31:42;100251.50;;;10.46;95.37
21234;BME280;10774;42.178;26.578;2023-02-19T06:34:08;100236.22;;;10.63;94.43
21234;BME280;10774;42.178;26.578;2023-02-19T06:36:33;100232.81;;;10.89;92.59
21234;BME280;10774;42.178;26.578;2023-02-19T06:39:00;100241.22;;;11.13;90.55
21234;BME280;10774;42.178;26.578;2023-02-19T06:41:25;100243.56;;;11.34;88.65
21234;BME280;10774;42.178;26.578;2023-02-19T06:43:51;100208.50;;;11.35;88.01
21234;BME280;10774;42.178;26.578;2023-02-19T06:46:16;100238.16;;;11.62;86.50
21234;BME280;10774;42.178;26.578;2023-02-19T06:48:43;100242.94;;;11.71;85.85
21234;BME280;10774;42.178;26.578;2023-02-19T06:51:14;100232.47;;;11.81;85.92
21234;BME280;10774;42.178;26.578;2023-02-19T06:53:40;100217.97;;;11.69;86.40
21234;BME280;10774;42.178;26.578;2023-02-19T06:56:19;100250.97;;;12.00;86.02
21234;BME280;10774;42.178;26.578;2023-02-19T06:58:46;100254.63;;;12.13;85.32
21234;BME280;10774;42.178;26.578;2023-02-19T07:01:12;100242.81;;;12.28;85.04
21234;BME280;10774;42.178;26.578;2023-02-19T07:03:37;100248.72;;;12.48;83.68
21234;BME280;10774;42.178;26.578;2023-02-19T07:06:03;100238.31;;;12.56;82.84
21234;BME280;10774;42.178;26.578;2023-02-19T07:08:28;100252.09;;;12.64;82.20
21234;BME280;10774;42.178;26.578;2023-02-19T07:10:56;100267.50;;;12.62;82.07
21234;BME280;10774;42.178;26.578;2023-02-19T07:13:23;100260.94;;;12.66;81.50
21234;BME280;10774;42.178;26.578;2023-02-19T07:15:49;100254.41;;;12.83;84.40
21234;BME280;10774;42.178;26.578;2023-02-19T07:18:14;100245.56;;;12.81;79.71
21234;BME280;10774;42.178;26.578;2023-02-19T07:20:39;100249.88;;;12.83;79.39
21234;BME280;10774;42.178;26.578;2023-02-19T07:23:05;100271.69;;;13.06;79.25
21234;BME280;10774;42.178;26.578;2023-02-19T07:25:30;100276.19;;;12.93;78.92
21234;BME280;10774;42.178;26.578;2023-02-19T07:27:56;100279.44;;;12.98;77.88
21234;BME280;10774;42.178;26.578;2023-02-19T07:30:21;100269.53;;;12.98;77.60
21234;BME280;10774;42.178;26.578;2023-02-19T07:32:47;100259.19;;;12.92;76.43
21234;BME280;10774;42.178;26.578;2023-02-19T07:35:13;100264.78;;;13.02;75.57
21234;BME280;10774;42.178;26.578;2023-02-19T07:37:40;100271.91;;;13.03;76.06
21234;BME280;10774;42.178;26.578;2023-02-19T07:40:06;100262.63;;;13.07;75.96
21234;BME280;10774;42.178;26.578;2023-02-19T07:42:31;100272.28;;;13.24;74.72
21234;BME280;10774;42.178;26.578;2023-02-19T07:44:59;100259.66;;;13.24;72.98
21234;BME280;10774;42.178;26.578;2023-02-19T07:47:25;100253.53;;;13.35;71.98
21234;BME280;10774;42.178;26.578;2023-02-19T07:49:50;100244.97;;;13.28;71.08
21234;BME280;10774;42.178;26.578;2023-02-19T07:52:15;100258.25;;;13.44;69.67
21234;BME280;10774;42.178;26.578;2023-02-19T07:54:41;100261.59;;;13.48;68.18
21234;BME280;10774;42.178;26.578;2023-02-19T07:57:06;100259.00;;;13.59;64.83
21234;BME280;10774;42.178;26.578;2023-02-19T07:59:33;100261.56;;;13.73;63.96
21234;BME280;10774;42.178;26.578;2023-02-19T08:01:58;100272.78;;;13.93;61.57
21234;BME280;10774;42.178;26.578;2023-02-19T08:04:42;100240.22;;;14.07;59.99
21234;BME280;10774;42.178;26.578;2023-02-19T08:07:07;100251.69;;;14.34;57.49
21234;BME280;10774;42.178;26.578;2023-02-19T08:09:33;100240.16;;;14.44;54.77
21234;BME280;10774;42.178;26.578;2023-02-19T08:11:58;100246.41;;;14.57;55.23
21234;BME280;10774;42.178;26.578;2023-02-19T08:14:42;100239.22;;;14.69;55.70
21234;BME280;10774;42.178;26.578;2023-02-19T08:17:08;100258.16;;;14.80;56.52
21234;BME280;10774;42.178;26.578;2023-02-19T08:19:33;100240.38;;;14.88;56.10
21234;BME280;10774;42.178;26.578;2023-02-19T08:21:58;100233.88;;;14.91;55.84
21234;BME280;10774;42.178;26.578;2023-02-19T08:24:24;100225.38;;;14.84;53.56
21234;BME280;10774;42.178;26.578;2023-02-19T08:26:49;100248.91;;;15.06;47.58
21234;BME280;10774;42.178;26.578;2023-02-19T08:29:15;100237.59;;;15.01;47.10
21234;BME280;10774;42.178;26.578;2023-02-19T08:31:40;100244.13;;;15.10;46.30
21234;BME280;10774;42.178;26.578;2023-02-19T08:34:06;100234.81;;;15.14;46.31
21234;BME280;10774;42.178;26.578;2023-02-19T08:36:31;100240.72;;;15.19;45.60
21234;BME280;10774;42.178;26.578;2023-02-19T08:38:56;100234.81;;;15.25;46.23
21234;BME280;10774;42.178;26.578;2023-02-19T08:41:22;100236.53;;;15.37;46.11
21234;BME280;10774;42.178;26.578;2023-02-19T08:43:47;100227.34;;;15.51;45.46
21234;BME280;10774;42.178;26.578;2023-02-19T08:46:13;100230.78;;;15.53;44.88
21234;BME280;10774;42.178;26.578;2023-02-19T08:48:38;100237.06;;;15.76;44.84
21234;BME280;10774;42.178;26.578;2023-02-19T08:51:08;100234.34;;;15.99;44.56
21234;BME280;10774;42.178;26.578;2023-02-19T08:53:35;100231.06;;;16.27;43.86
21234;BME280;10774;42.178;26.578;2023-02-19T08:56:13;100219.47;;;16.36;43.58
21234;BME280;10774;42.178;26.578;2023-02-19T08:58:39;100221.47;;;16.55;43.43
21234;BME280;10774;42.178;26.578;2023-02-19T09:01:09;100235.97;;;16.65;42.98
21234;BME280;10774;42.178;26.578;2023-02-19T09:03:35;100219.38;;;16.59;42.31
21234;BME280;10774;42.178;26.578;2023-02-19T09:06:01;100212.84;;;16.61;42.52
21234;BME280;10774;42.178;26.578;2023-02-19T09:08:26;100216.97;;;16.77;41.94
21234;BME280;10774;42.178;26.578;2023-02-19T09:11:01;100228.97;;;16.74;41.94
21234;BME280;10774;42.178;26.578;2023-02-19T09:13:27;100230.03;;;16.83;41.84
21234;BME280;10774;42.178;26.578;2023-02-19T09:15:53;100214.28;;;16.97;42.10
21234;BME280;10774;42.178;26.578;2023-02-19T09:18:18;100200.47;;;17.01;41.76
21234;BME280;10774;42.178;26.578;2023-02-19T09:20:44;100198.88;;;16.98;41.39
21234;BME280;10774;42.178;26.578;2023-02-19T09:23:09;100203.78;;;17.04;41.62
21234;BME280;10774;42.178;26.578;2023-02-19T09:25:34;100185.81;;;17.13;41.53
21234;BME280;10774;42.178;26.578;2023-02-19T09:28:00;100196.31;;;17.27;41.13
21234;BME280;10774;42.178;26.578;2023-02-19T09:30:25;100185.03;;;17.22;40.78
21234;BME280;10774;42.178;26.578;2023-02-19T09:32:51;100193.66;;;17.37;40.59
21234;BME280;10774;42.178;26.578;2023-02-19T09:35:16;100215.38;;;17.37;40.49
21234;BME280;10774;42.178;26.578;2023-02-19T09:37:42;100166.63;;;17.25;41.08
21234;BME280;10774;42.178;26.578;2023-02-19T09:40:08;100195.97;;;17.41;40.51
21234;BME280;10774;42.178;26.578;2023-02-19T09:42:34;100203.28;;;17.50;40.32
21234;BME280;10774;42.178;26.578;2023-02-19T09:45:00;100164.31;;;17.51;40.54
21234;BME280;10774;42.178;26.578;2023-02-19T09:47:28;100185.63;;;17.66;40.19
21234;BME280;10774;42.178;26.578;2023-02-19T09:50:22;100179.34;;;18.06;40.30
21234;BME280;10774;42.178;26.578;2023-02-19T09:52:57;100159.06;;;18.29;39.60
21234;BME280;10774;42.178;26.578;2023-02-19T09:55:36;100166.78;;;18.43;39.08
21234;BME280;10774;42.178;26.578;2023-02-19T10:00:41;100155.06;;;18.33;39.18
21234;BME280;10774;42.178;26.578;2023-02-19T10:03:18;100148.47;;;18.45;39.53
21234;BME280;10774;42.178;26.578;2023-02-19T10:05:46;100149.63;;;18.62;38.92
21234;BME280;10774;42.178;26.578;2023-02-19T10:08:17;100149.50;;;18.73;39.11
21234;BME280;10774;42.178;26.578;2023-02-19T10:10:43;100128.75;;;18.72;38.25
21234;BME280;10774;42.178;26.578;2023-02-19T10:13:17;100137.88;;;18.81;38.47
21234;BME280;10774;42.178;26.578;2023-02-19T10:15:46;100138.44;;;18.94;38.42
21234;BME280;10774;42.178;26.578;2023-02-19T10:18:15;100139.53;;;19.01;37.51
21234;BME280;10774;42.178;26.578;2023-02-19T10:20:41;100129.69;;;19.00;37.28
21234;BME280;10774;42.178;26.578;2023-02-19T10:23:09;100142.44;;;19.37;37.29
21234;BME280;10774;42.178;26.578;2023-02-19T10:25:41;100121.75;;;19.44;36.99
21234;BME280;10774;42.178;26.578;2023-02-19T10:28:12;100118.44;;;19.50;36.62
21234;BME280;10774;42.178;26.578;2023-02-19T10:30:40;100141.53;;;19.46;36.83
21234;BME280;10774;42.178;26.578;2023-02-19T10:33:14;100119.75;;;19.46;36.59
21234;BME280;10774;42.178;26.578;2023-02-19T10:36:06;100101.56;;;19.47;36.50
21234;BME280;10774;42.178;26.578;2023-02-19T10:38:37;100121.88;;;19.62;36.73
21234;BME280;10774;42.178;26.578;2023-02-19T10:41:11;100087.16;;;19.64;35.85
21234;BME280;10774;42.178;26.578;2023-02-19T10:43:40;100109.19;;;19.71;36.58
21234;BME280;10774;42.178;26.578;2023-02-19T10:46:19;100095.44;;;19.90;36.04
21234;BME280;10774;42.178;26.578;2023-02-19T10:48:54;100088.41;;;19.88;35.50
21234;BME280;10774;42.178;26.578;2023-02-19T10:51:30;100054.41;;;19.74;35.80
21234;BME280;10774;42.178;26.578;2023-02-19T10:54:13;100084.00;;;20.04;35.51
21234;BME280;10774;42.178;26.578;2023-02-19T10:56:40;100071.72;;;20.00;35.98
21234;BME280;10774;42.178;26.578;2023-02-19T11:01:54;100068.81;;;20.02;35.98
21234;BME280;10774;42.178;26.578;2023-02-19T11:04:20;100052.47;;;20.02;35.93
21234;BME280;10774;42.178;26.578;2023-02-19T11:06:46;100073.13;;;20.04;35.57
21234;BME280;10774;42.178;26.578;2023-02-19T11:09:31;100050.22;;;19.97;35.85
21234;BME280;10774;42.178;26.578;2023-02-19T11:11:59;100043.81;;;19.71;35.79
21234;BME280;10774;42.178;26.578;2023-02-19T11:14:26;100032.28;;;19.59;35.89
21234;BME280;10774;42.178;26.578;2023-02-19T11:16:58;100034.44;;;19.55;36.42
21234;BME280;10774;42.178;26.578;2023-02-19T11:21:54;100037.44;;;19.62;36.67
21234;BME280;10774;42.178;26.578;2023-02-19T11:24:36;100041.94;;;19.71;36.32
21234;BME280;10774;42.178;26.578;2023-02-19T11:27:04;100022.47;;;19.66;36.47
21234;BME280;10774;42.178;26.578;2023-02-19T11:29:31;100033.66;;;19.73;36.21
21234;BME280;10774;42.178;26.578;2023-02-19T11:34:47;100020.03;;;19.73;36.39
21234;BME280;10774;42.178;26.578;2023-02-19T11:37:17;100015.56;;;19.72;36.51
21234;BME280;10774;42.178;26.578;2023-02-19T11:39:46;100026.84;;;19.77;36.68
21234;BME280;10774;42.178;26.578;2023-02-19T11:50:26;100011.56;;;20.46;36.21
21234;BME280;10774;42.178;26.578;2023-02-19T12:06:53;99996.97;;;21.57;32.92
21234;BME280;10774;42.178;26.578;2023-02-19T12:12:12;99980.97;;;21.28;32.97
21234;BME280;10774;42.178;26.578;2023-02-19T12:23:35;99977.13;;;20.97;33.61
21234;BME280;10774;42.178;26.578;2023-02-19T12:42:39;99965.44;;;21.21;33.33
21234;BME280;10774;42.178;26.578;2023-02-19T12:45:18;99956.41;;;21.20;33.40
21234;BME280;10774;42.178;26.578;2023-02-19T12:47:58;99955.56;;;21.28;33.07
21234;BME280;10774;42.178;26.578;2023-02-19T12:50:26;99961.41;;;21.33;33.51
21234;BME280;10774;42.178;26.578;2023-02-19T12:52:58;99953.91;;;21.35;33.66
21234;BME280;10774;42.178;26.578;2023-02-19T12:55:34;99949.13;;;21.45;33.93
21234;BME280;10774;42.178;26.578;2023-02-19T12:58:04;99956.97;;;21.40;34.19
21234;BME280;10774;42.178;26.578;2023-02-19T13:00:41;99945.41;;;21.46;33.88
21234;BME280;10774;42.178;26.578;2023-02-19T13:03:36;99943.03;;;21.59;33.47
21234;BME280;10774;42.178;26.578;2023-02-19T13:06:10;99940.97;;;21.61;33.75
21234;BME280;10774;42.178;26.578;2023-02-19T13:08:57;99938.94;;;21.80;33.27
21234;BME280;10774;42.178;26.578;2023-02-19T13:11:32;99934.81;;;21.92;33.13
21234;BME280;10774;42.178;26.578;2023-02-19T13:14:06;99933.81;;;22.01;32.72
21234;BME280;10774;42.178;26.578;2023-02-19T13:16:37;99929.38;;;21.92;33.14
21234;BME280;10774;42.178;26.578;2023-02-19T13:19:04;99929.19;;;21.77;32.51
21234;BME280;10774;42.178;26.578;2023-02-19T13:21:31;99931.09;;;21.85;33.00
21234;BME280;10774;42.178;26.578;2023-02-19T13:24:22;99930.56;;;22.06;32.56
21234;BME280;10774;42.178;26.578;2023-02-19T13:32:54;99930.22;;;21.92;33.38
21234;BME280;10774;42.178;26.578;2023-02-19T13:38:00;99932.09;;;22.00;33.67
21234;BME280;10774;42.178;26.578;2023-02-19T13:40:31;99917.41;;;22.09;33.29
21234;BME280;10774;42.178;26.578;2023-02-19T13:42:59;99922.53;;;22.04;32.77
21234;BME280;10774;42.178;26.578;2023-02-19T13:45:41;99901.72;;;22.11;32.30
21234;BME280;10774;42.178;26.578;2023-02-19T13:59:23;99909.19;;;23.20;31.09
21234;BME280;10774;42.178;26.578;2023-02-19T14:14:39;99891.34;;;23.25;30.49
21234;BME280;10774;42.178;26.578;2023-02-19T14:30:26;99888.38;;;23.57;29.98
21234;BME280;10774;42.178;26.578;2023-02-19T14:32:51;99872.78;;;23.35;29.96
21234;BME280;10774;42.178;26.578;2023-02-19T14:35:26;99852.34;;;23.22;30.19
21234;BME280;10774;42.178;26.578;2023-02-19T14:37:55;99870.03;;;23.35;30.76
21234;BME280;10774;42.178;26.578;2023-02-19T14:40:38;99869.88;;;23.59;30.03
21234;BME280;10774;42.178;26.578;2023-02-19T14:43:13;99865.59;;;23.34;30.33
21234;BME280;10774;42.178;26.578;2023-02-19T14:45:55;99865.59;;;23.34;30.39
21234;BME280;10774;42.178;26.578;2023-02-19T14:48:28;99862.91;;;23.03;30.52
21234;BME280;10774;42.178;26.578;2023-02-19T14:51:01;99866.69;;;23.25;30.64
21234;BME280;10774;42.178;26.578;2023-02-19T14:53:28;99868.84;;;23.37;30.60
21234;BME280;10774;42.178;26.578;2023-02-19T14:55:55;99846.72;;;23.39;30.67
21234;BME280;10774;42.178;26.578;2023-02-19T14:58:29;99864.03;;;23.16;30.96
21234;BME280;10774;42.178;26.578;2023-02-19T15:00:56;99857.31;;;22.96;31.31
21234;BME280;10774;42.178;26.578;2023-02-19T15:03:34;99864.84;;;22.86;31.32
21234;BME280;10774;42.178;26.578;2023-02-19T15:06:04;99851.03;;;22.79;30.95
21234;BME280;10774;42.178;26.578;2023-02-19T15:08:35;99857.72;;;22.77;30.99